sensor_id;sensor_type;location;lat;lon;timestamp;P1;durP1;ratioP1;P2;durP2;ratioP2
19645;SDS011;9971;52.446;13.452;2023-05-08T00:01:19;2.87;;;2.62;;
19645;SDS011;9971;52.446;13.452;2023-05-08T00:06:22;3.80;;;3.50;;
19645;SDS011;9971;52.446;13.452;2023-05-08T00:11:25;3.75;;;3.27;;
19645;SDS011;9971;52.446;13.452;2023-05-08T00:16:27;3.58;;;3.27;;
19645;SDS011;9971;52.446;13.452;2023-05-08T00:21:30;3.75;;;3.45;;
19645;SDS011;9971;52.446;13.452;2023-05-08T00:26:32;2.60;;;2.40;;
19645;SDS011;9971;52.446;13.452;2023-05-08T00:31:35;3.35;;;2.85;;
19645;SDS011;9971;52.446;13.452;2023-05-08T00:36:37;3.02;;;2.83;;
19645;SDS011;9971;52.446;13.452;2023-05-08T00:41:40;5.43;;;3.23;;
19645;SDS011;9971;52.446;13.452;2023-05-08T00:46:42;3.25;;;2.95;;
19645;SDS011;9971;52.446;13.452;2023-05-08T00:51:46;3.17;;;2.80;;
19645;SDS011;9971;52.446;13.452;2023-05-08T00:56:48;3.23;;;2.93;;
19645;SDS011;9971;52.446;13.452;2023-05-08T01:01:49;3.40;;;3.10;;
19645;SDS011;9971;52.446;13.452;2023-05-08T01:06:52;3.72;;;3.42;;
19645;SDS011;9971;52.446;13.452;2023-05-08T01:12:04;3.70;;;3.40;;
19645;SDS011;9971;52.446;13.452;2023-05-08T01:17:22;3.47;;;3.17;;
19645;SDS011;9971;52.446;13.452;2023-05-08T01:27:49;4.57;;;3.90;;
19645;SDS011;9971;52.446;13.452;2023-05-08T01:32:50;3.90;;;3.47;;
19645;SDS011;9971;52.446;13.452;2023-05-08T01:37:56;3.62;;;3.33;;
19645;SDS011;9971;52.446;13.452;2023-05-08T01:43:06;3.83;;;3.42;;
19645;SDS011;9971;52.446;13.452;2023-05-08T01:48:21;3.57;;;3.27;;
19645;SDS011;9971;52.446;13.452;2023-05-08T01:53:28;5.10;;;3.90;;
19645;SDS011;9971;52.446;13.452;2023-05-08T01:58:44;3.67;;;3.37;;
19645;SDS011;9971;52.446;13.452;2023-05-08T02:03:47;3.83;;;3.53;;
19645;SDS011;9971;52.446;13.452;2023-05-08T02:08:50;3.85;;;3.25;;
19645;SDS011;9971;52.446;13.452;2023-05-08T02:13:52;3.83;;;3.40;;
19645;SDS011;9971;52.446;13.452;2023-05-08T02:18:54;4.20;;;3.70;;
19645;SDS011;9971;52.446;13.452;2023-05-08T02:23:57;3.70;;;3.40;;
19645;SDS011;9971;52.446;13.452;2023-05-08T02:28:59;4.27;;;3.70;;
19645;SDS011;9971;52.446;13.452;2023-05-08T02:34:01;3.92;;;3.62;;
19645;SDS011;9971;52.446;13.452;2023-05-08T02:39:03;4.33;;;3.93;;
19645;SDS011;9971;52.446;13.452;2023-05-08T02:44:05;4.40;;;4.00;;
19645;SDS011;9971;52.446;13.452;2023-05-08T02:49:16;4.67;;;3.90;;
19645;SDS011;9971;52.446;13.452;2023-05-08T02:59:41;4.13;;;3.83;;
19645;SDS011;9971;52.446;13.452;2023-05-08T03:04:49;4.13;;;3.80;;
19645;SDS011;9971;52.446;13.452;2023-05-08T03:09:54;5.03;;;3.90;;
19645;SDS011;9971;52.446;13.452;2023-05-08T03:15:00;4.40;;;4.00;;
19645;SDS011;9971;52.446;13.452;2023-05-08T03:20:08;4.15;;;3.80;;
19645;SDS011;9971;52.446;13.452;2023-05-08T03:25:10;5.17;;;4.25;;
19645;SDS011;9971;52.446;13.452;2023-05-08T03:30:12;4.97;;;4.53;;
19645;SDS011;9971;52.446;13.452;2023-05-08T03:35:20;5.08;;;4.58;;
19645;SDS011;9971;52.446;13.452;2023-05-08T03:40:22;4.87;;;4.40;;
19645;SDS011;9971;52.446;13.452;2023-05-08T03:45:25;4.43;;;4.13;;
19645;SDS011;9971;52.446;13.452;2023-05-08T03:50:27;4.45;;;4.05;;
19645;SDS011;9971;52.446;13.452;2023-05-08T03:55:30;5.83;;;4.87;;
19645;SDS011;9971;52.446;13.452;2023-05-08T04:00:36;5.20;;;4.70;;
19645;SDS011;9971;52.446;13.452;2023-05-08T04:05:59;4.60;;;4.23;;
19645;SDS011;9971;52.446;13.452;2023-05-08T04:16:27;4.80;;;4.27;;
19645;SDS011;9971;52.446;13.452;2023-05-08T04:21:30;5.67;;;4.03;;
19645;SDS011;9971;52.446;13.452;2023-05-08T04:26:32;4.97;;;4.30;;
19645;SDS011;9971;52.446;13.452;2023-05-08T04:31:36;5.27;;;4.80;;
19645;SDS011;9971;52.446;13.452;2023-05-08T04:36:43;4.85;;;4.45;;
19645;SDS011;9971;52.446;13.452;2023-05-08T04:41:47;4.37;;;3.90;;
19645;SDS011;9971;52.446;13.452;2023-05-08T04:46:51;5.33;;;4.47;;
19645;SDS011;9971;52.446;13.452;2023-05-08T04:51:53;4.45;;;4.05;;
19645;SDS011;9971;52.446;13.452;2023-05-08T04:56:56;4.25;;;3.92;;
19645;SDS011;9971;52.446;13.452;2023-05-08T05:01:59;4.70;;;4.15;;
19645;SDS011;9971;52.446;13.452;2023-05-08T05:07:01;4.05;;;3.75;;
19645;SDS011;9971;52.446;13.452;2023-05-08T05:12:05;3.83;;;3.53;;
19645;SDS011;9971;52.446;13.452;2023-05-08T05:17:08;3.95;;;3.55;;
19645;SDS011;9971;52.446;13.452;2023-05-08T05:22:13;4.12;;;3.72;;
19645;SDS011;9971;52.446;13.452;2023-05-08T05:27:16;3.40;;;3.10;;
19645;SDS011;9971;52.446;13.452;2023-05-08T05:32:19;4.47;;;3.62;;
19645;SDS011;9971;52.446;13.452;2023-05-08T05:37:26;3.08;;;2.80;;
19645;SDS011;9971;52.446;13.452;2023-05-08T05:42:29;3.53;;;3.23;;
19645;SDS011;9971;52.446;13.452;2023-05-08T05:47:32;3.40;;;2.95;;
19645;SDS011;9971;52.446;13.452;2023-05-08T05:52:35;4.17;;;2.70;;
19645;SDS011;9971;52.446;13.452;2023-05-08T05:57:39;3.40;;;3.10;;
19645;SDS011;9971;52.446;13.452;2023-05-08T06:02:41;3.70;;;3.40;;
19645;SDS011;9971;52.446;13.452;2023-05-08T06:07:44;2.85;;;2.65;;
19645;SDS011;9971;52.446;13.452;2023-05-08T06:12:48;3.17;;;2.97;;
19645;SDS011;9971;52.446;13.452;2023-05-08T06:17:51;3.17;;;2.60;;
19645;SDS011;9971;52.446;13.452;2023-05-08T06:22:54;3.05;;;2.80;;
19645;SDS011;9971;52.446;13.452;2023-05-08T06:27:56;2.83;;;2.63;;
19645;SDS011;9971;52.446;13.452;2023-05-08T06:32:59;3.00;;;2.80;;
19645;SDS011;9971;52.446;13.452;2023-05-08T06:38:01;2.52;;;2.33;;
19645;SDS011;9971;52.446;13.452;2023-05-08T06:43:04;2.60;;;2.40;;
19645;SDS011;9971;52.446;13.452;2023-05-08T06:48:06;2.90;;;2.62;;
19645;SDS011;9971;52.446;13.452;2023-05-08T06:53:09;3.05;;;2.42;;
19645;SDS011;9971;52.446;13.452;2023-05-08T06:58:11;2.47;;;2.27;;
19645;SDS011;9971;52.446;13.452;2023-05-08T07:03:15;3.30;;;2.73;;
19645;SDS011;9971;52.446;13.452;2023-05-08T07:08:17;2.77;;;2.20;;
19645;SDS011;9971;52.446;13.452;2023-05-08T07:13:21;2.27;;;2.07;;
19645;SDS011;9971;52.446;13.452;2023-05-08T07:18:23;2.00;;;1.90;;
19645;SDS011;9971;52.446;13.452;2023-05-08T07:23:26;2.22;;;2.00;;
19645;SDS011;9971;52.446;13.452;2023-05-08T07:28:28;3.75;;;2.20;;
19645;SDS011;9971;52.446;13.452;2023-05-08T07:33:31;3.02;;;2.17;;
19645;SDS011;9971;52.446;13.452;2023-05-08T07:38:33;2.07;;;1.73;;
19645;SDS011;9971;52.446;13.452;2023-05-08T07:43:35;1.92;;;1.77;;
19645;SDS011;9971;52.446;13.452;2023-05-08T07:48:37;1.83;;;1.73;;
19645;SDS011;9971;52.446;13.452;2023-05-08T07:53:40;2.92;;;2.02;;
19645;SDS011;9971;52.446;13.452;2023-05-08T07:58:42;2.95;;;2.00;;
19645;SDS011;9971;52.446;13.452;2023-05-08T08:03:45;1.80;;;1.70;;
19645;SDS011;9971;52.446;13.452;2023-05-08T08:08:47;2.17;;;1.87;;
19645;SDS011;9971;52.446;13.452;2023-05-08T08:13:49;1.90;;;1.70;;
19645;SDS011;9971;52.446;13.452;2023-05-08T08:18:52;1.75;;;1.60;;
19645;SDS011;9971;52.446;13.452;2023-05-08T08:23:54;3.08;;;1.75;;
19645;SDS011;9971;52.446;13.452;2023-05-08T08:28:56;2.25;;;2.05;;
19645;SDS011;9971;52.446;13.452;2023-05-08T08:33:59;1.60;;;1.50;;
19645;SDS011;9971;52.446;13.452;2023-05-08T08:39:02;1.70;;;1.60;;
19645;SDS011;9971;52.446;13.452;2023-05-08T08:44:04;1.85;;;1.65;;
19645;SDS011;9971;52.446;13.452;2023-05-08T08:49:06;1.70;;;1.60;;
19645;SDS011;9971;52.446;13.452;2023-05-08T08:54:10;1.87;;;1.70;;
19645;SDS011;9971;52.446;13.452;2023-05-08T08:59:11;2.10;;;1.70;;
19645;SDS011;9971;52.446;13.452;2023-05-08T09:04:13;2.13;;;1.60;;
19645;SDS011;9971;52.446;13.452;2023-05-08T09:09:15;2.37;;;1.82;;
19645;SDS011;9971;52.446;13.452;2023-05-08T09:14:17;2.33;;;1.67;;
19645;SDS011;9971;52.446;13.452;2023-05-08T09:19:20;2.35;;;1.77;;
19645;SDS011;9971;52.446;13.452;2023-05-08T09:24:22;2.47;;;1.80;;
19645;SDS011;9971;52.446;13.452;2023-05-08T09:29:24;4.67;;;1.80;;
19645;SDS011;9971;52.446;13.452;2023-05-08T09:34:28;4.87;;;1.55;;
19645;SDS011;9971;52.446;13.452;2023-05-08T09:39:29;2.47;;;1.67;;
19645;SDS011;9971;52.446;13.452;2023-05-08T09:54:59;1.90;;;1.80;;
19645;SDS011;9971;52.446;13.452;2023-05-08T10:00:02;1.53;;;1.43;;
19645;SDS011;9971;52.446;13.452;2023-05-08T10:05:38;1.67;;;1.57;;
19645;SDS011;9971;52.446;13.452;2023-05-08T10:10:24;1.40;;;1.30;;
19645;SDS011;9971;52.446;13.452;2023-05-08T10:15:28;1.50;;;1.40;;
19645;SDS011;9971;52.446;13.452;2023-05-08T10:20:29;1.60;;;1.50;;
19645;SDS011;9971;52.446;13.452;2023-05-08T10:25:32;1.93;;;1.73;;
19645;SDS011;9971;52.446;13.452;2023-05-08T10:30:33;3.08;;;1.42;;
19645;SDS011;9971;52.446;13.452;2023-05-08T10:35:36;2.55;;;1.60;;
19645;SDS011;9971;52.446;13.452;2023-05-08T10:40:37;2.85;;;1.60;;
19645;SDS011;9971;52.446;13.452;2023-05-08T10:45:40;3.77;;;1.80;;
19645;SDS011;9971;52.446;13.452;2023-05-08T10:50:49;2.47;;;1.30;;
19645;SDS011;9971;52.446;13.452;2023-05-08T10:55:49;1.37;;;1.27;;
19645;SDS011;9971;52.446;13.452;2023-05-08T11:06:11;1.42;;;1.32;;
19645;SDS011;9971;52.446;13.452;2023-05-08T11:11:19;1.70;;;1.57;;
19645;SDS011;9971;52.446;13.452;2023-05-08T11:26:58;2.23;;;1.70;;
19645;SDS011;9971;52.446;13.452;2023-05-08T11:32:00;1.60;;;1.47;;
19645;SDS011;9971;52.446;13.452;2023-05-08T11:37:07;1.57;;;1.47;;
19645;SDS011;9971;52.446;13.452;2023-05-08T11:47:18;4.03;;;1.30;;
19645;SDS011;9971;52.446;13.452;2023-05-08T11:52:20;1.60;;;1.50;;
19645;SDS011;9971;52.446;13.452;2023-05-08T11:57:22;1.83;;;1.37;;
19645;SDS011;9971;52.446;13.452;2023-05-08T12:07:41;4.60;;;1.50;;
19645;SDS011;9971;52.446;13.452;2023-05-08T12:12:43;1.13;;;1.10;;
19645;SDS011;9971;52.446;13.452;2023-05-08T12:17:45;1.60;;;1.50;;
19645;SDS011;9971;52.446;13.452;2023-05-08T12:22:49;1.45;;;1.35;;
19645;SDS011;9971;52.446;13.452;2023-05-08T12:27:50;1.95;;;1.17;;
19645;SDS011;9971;52.446;13.452;2023-05-08T12:32:52;1.40;;;1.30;;
19645;SDS011;9971;52.446;13.452;2023-05-08T12:37:59;1.47;;;1.37;;
19645;SDS011;9971;52.446;13.452;2023-05-08T12:43:04;2.37;;;1.32;;
19645;SDS011;9971;52.446;13.452;2023-05-08T12:48:08;1.62;;;1.32;;
19645;SDS011;9971;52.446;13.452;2023-05-08T12:53:09;1.70;;;1.57;;
19645;SDS011;9971;52.446;13.452;2023-05-08T12:58:11;1.50;;;1.40;;
19645;SDS011;9971;52.446;13.452;2023-05-08T13:03:20;1.70;;;1.20;;
19645;SDS011;9971;52.446;13.452;2023-05-08T13:08:28;1.53;;;1.40;;
19645;SDS011;9971;52.446;13.452;2023-05-08T13:13:32;2.72;;;1.70;;
19645;SDS011;9971;52.446;13.452;2023-05-08T13:18:33;1.63;;;1.30;;
19645;SDS011;9971;52.446;13.452;2023-05-08T13:23:35;1.90;;;1.30;;
19645;SDS011;9971;52.446;13.452;2023-05-08T13:28:37;4.30;;;2.00;;
19645;SDS011;9971;52.446;13.452;2023-05-08T13:33:40;1.50;;;1.25;;
19645;SDS011;9971;52.446;13.452;2023-05-08T13:38:42;1.00;;;0.90;;
19645;SDS011;9971;52.446;13.452;2023-05-08T13:43:46;1.87;;;1.22;;
19645;SDS011;9971;52.446;13.452;2023-05-08T13:48:49;1.70;;;1.60;;
19645;SDS011;9971;52.446;13.452;2023-05-08T13:53:52;1.60;;;1.40;;
19645;SDS011;9971;52.446;13.452;2023-05-08T13:58:55;1.55;;;1.17;;
19645;SDS011;9971;52.446;13.452;2023-05-08T14:03:57;1.72;;;1.37;;
19645;SDS011;9971;52.446;13.452;2023-05-08T14:09:00;1.10;;;1.00;;
19645;SDS011;9971;52.446;13.452;2023-05-08T14:14:02;2.47;;;1.30;;
19645;SDS011;9971;52.446;13.452;2023-05-08T14:19:05;3.20;;;1.30;;
19645;SDS011;9971;52.446;13.452;2023-05-08T14:24:07;1.35;;;1.25;;
19645;SDS011;9971;52.446;13.452;2023-05-08T14:29:10;1.57;;;1.20;;
19645;SDS011;9971;52.446;13.452;2023-05-08T14:34:12;1.72;;;1.20;;
19645;SDS011;9971;52.446;13.452;2023-05-08T14:39:14;1.80;;;1.27;;
19645;SDS011;9971;52.446;13.452;2023-05-08T14:44:17;1.47;;;1.37;;
19645;SDS011;9971;52.446;13.452;2023-05-08T14:49:20;2.17;;;1.60;;
19645;SDS011;9971;52.446;13.452;2023-05-08T14:54:22;1.90;;;1.42;;
19645;SDS011;9971;52.446;13.452;2023-05-08T14:59:25;1.40;;;1.30;;
19645;SDS011;9971;52.446;13.452;2023-05-08T15:04:27;1.40;;;1.30;;
19645;SDS011;9971;52.446;13.452;2023-05-08T15:09:29;2.50;;;1.67;;
19645;SDS011;9971;52.446;13.452;2023-05-08T15:14:32;1.75;;;1.57;;
19645;SDS011;9971;52.446;13.452;2023-05-08T15:19:34;1.62;;;1.52;;
19645;SDS011;9971;52.446;13.452;2023-05-08T15:24:37;1.67;;;1.55;;
19645;SDS011;9971;52.446;13.452;2023-05-08T15:29:39;1.67;;;1.57;;
19645;SDS011;9971;52.446;13.452;2023-05-08T15:34:42;1.87;;;1.47;;
19645;SDS011;9971;52.446;13.452;2023-05-08T15:39:44;1.72;;;1.62;;
19645;SDS011;9971;52.446;13.452;2023-05-08T15:44:47;2.30;;;1.35;;
19645;SDS011;9971;52.446;13.452;2023-05-08T15:49:49;2.35;;;1.55;;
19645;SDS011;9971;52.446;13.452;2023-05-08T15:54:52;2.40;;;2.20;;
19645;SDS011;9971;52.446;13.452;2023-05-08T15:59:54;2.55;;;1.50;;
19645;SDS011;9971;52.446;13.452;2023-05-08T16:04:57;1.47;;;1.37;;
19645;SDS011;9971;52.446;13.452;2023-05-08T16:09:59;2.12;;;1.62;;
19645;SDS011;9971;52.446;13.452;2023-05-08T16:15:02;3.00;;;1.75;;
19645;SDS011;9971;52.446;13.452;2023-05-08T16:20:05;1.75;;;1.65;;
19645;SDS011;9971;52.446;13.452;2023-05-08T16:25:08;2.25;;;1.72;;
19645;SDS011;9971;52.446;13.452;2023-05-08T16:30:11;1.55;;;1.45;;
19645;SDS011;9971;52.446;13.452;2023-05-08T16:35:14;3.20;;;1.70;;
19645;SDS011;9971;52.446;13.452;2023-05-08T16:40:16;3.53;;;1.70;;
19645;SDS011;9971;52.446;13.452;2023-05-08T16:45:18;2.37;;;1.35;;
19645;SDS011;9971;52.446;13.452;2023-05-08T16:50:21;2.12;;;1.92;;
19645;SDS011;9971;52.446;13.452;2023-05-08T16:55:23;1.70;;;1.55;;
19645;SDS011;9971;52.446;13.452;2023-05-08T17:00:25;1.60;;;1.50;;
19645;SDS011;9971;52.446;13.452;2023-05-08T17:05:28;1.62;;;1.25;;
19645;SDS011;9971;52.446;13.452;2023-05-08T17:10:30;2.08;;;1.70;;
19645;SDS011;9971;52.446;13.452;2023-05-08T17:15:33;1.67;;;1.57;;
19645;SDS011;9971;52.446;13.452;2023-05-08T17:20:35;1.77;;;1.67;;
19645;SDS011;9971;52.446;13.452;2023-05-08T17:25:37;3.20;;;1.67;;
19645;SDS011;9971;52.446;13.452;2023-05-08T17:30:40;4.05;;;1.92;;
19645;SDS011;9971;52.446;13.452;2023-05-08T17:35:43;2.12;;;1.47;;
19645;SDS011;9971;52.446;13.452;2023-05-08T17:40:45;2.13;;;1.40;;
19645;SDS011;9971;52.446;13.452;2023-05-08T17:45:48;2.33;;;1.77;;
19645;SDS011;9971;52.446;13.452;2023-05-08T17:50:50;2.87;;;1.80;;
19645;SDS011;9971;52.446;13.452;2023-05-08T17:55:53;1.53;;;1.43;;
19645;SDS011;9971;52.446;13.452;2023-05-08T18:00:55;1.60;;;1.50;;
19645;SDS011;9971;52.446;13.452;2023-05-08T18:05:57;2.37;;;1.80;;
19645;SDS011;9971;52.446;13.452;2023-05-08T18:11:00;2.05;;;1.87;;
19645;SDS011;9971;52.446;13.452;2023-05-08T18:16:02;1.60;;;1.50;;
19645;SDS011;9971;52.446;13.452;2023-05-08T18:21:04;3.85;;;1.75;;
19645;SDS011;9971;52.446;13.452;2023-05-08T18:26:07;2.07;;;1.60;;
19645;SDS011;9971;52.446;13.452;2023-05-08T18:31:09;2.37;;;1.50;;
19645;SDS011;9971;52.446;13.452;2023-05-08T18:36:11;3.23;;;1.93;;
19645;SDS011;9971;52.446;13.452;2023-05-08T18:41:13;2.15;;;1.80;;
19645;SDS011;9971;52.446;13.452;2023-05-08T18:46:16;3.00;;;2.55;;
19645;SDS011;9971;52.446;13.452;2023-05-08T18:51:18;4.00;;;1.95;;
19645;SDS011;9971;52.446;13.452;2023-05-08T18:56:21;3.25;;;1.72;;
19645;SDS011;9971;52.446;13.452;2023-05-08T19:01:23;2.60;;;1.70;;
19645;SDS011;9971;52.446;13.452;2023-05-08T19:06:25;2.83;;;1.75;;
19645;SDS011;9971;52.446;13.452;2023-05-08T19:11:28;2.07;;;1.87;;
19645;SDS011;9971;52.446;13.452;2023-05-08T19:16:30;1.92;;;1.82;;
19645;SDS011;9971;52.446;13.452;2023-05-08T19:21:33;2.90;;;2.10;;
19645;SDS011;9971;52.446;13.452;2023-05-08T19:26:35;2.67;;;2.22;;
19645;SDS011;9971;52.446;13.452;2023-05-08T19:31:38;2.55;;;2.00;;
19645;SDS011;9971;52.446;13.452;2023-05-08T19:36:40;2.02;;;1.80;;
19645;SDS011;9971;52.446;13.452;2023-05-08T19:41:43;2.50;;;2.17;;
19645;SDS011;9971;52.446;13.452;2023-05-08T19:46:49;2.63;;;2.43;;
19645;SDS011;9971;52.446;13.452;2023-05-08T19:51:50;2.35;;;2.15;;
19645;SDS011;9971;52.446;13.452;2023-05-08T19:56:53;2.67;;;2.35;;
19645;SDS011;9971;52.446;13.452;2023-05-08T20:01:58;2.27;;;1.90;;
19645;SDS011;9971;52.446;13.452;2023-05-08T20:07:00;3.10;;;2.10;;
19645;SDS011;9971;52.446;13.452;2023-05-08T20:12:03;3.87;;;2.40;;
19645;SDS011;9971;52.446;13.452;2023-05-08T20:17:06;3.30;;;2.77;;
19645;SDS011;9971;52.446;13.452;2023-05-08T20:22:09;6.60;;;2.90;;
19645;SDS011;9971;52.446;13.452;2023-05-08T20:27:11;4.10;;;2.15;;
19645;SDS011;9971;52.446;13.452;2023-05-08T20:32:13;3.72;;;2.85;;
19645;SDS011;9971;52.446;13.452;2023-05-08T20:37:16;3.98;;;2.40;;
19645;SDS011;9971;52.446;13.452;2023-05-08T20:42:18;3.67;;;2.35;;
19645;SDS011;9971;52.446;13.452;2023-05-08T20:47:22;2.57;;;2.37;;
19645;SDS011;9971;52.446;13.452;2023-05-08T20:52:24;3.02;;;2.22;;
19645;SDS011;9971;52.446;13.452;2023-05-08T20:57:27;2.87;;;2.67;;
19645;SDS011;9971;52.446;13.452;2023-05-08T21:02:29;2.65;;;2.45;;
19645;SDS011;9971;52.446;13.452;2023-05-08T21:07:31;4.05;;;2.52;;
19645;SDS011;9971;52.446;13.452;2023-05-08T21:12:34;5.60;;;3.10;;
19645;SDS011;9971;52.446;13.452;2023-05-08T21:17:36;4.25;;;2.33;;
19645;SDS011;9971;52.446;13.452;2023-05-08T21:22:39;3.62;;;3.15;;
19645;SDS011;9971;52.446;13.452;2023-05-08T21:27:42;2.80;;;2.60;;
19645;SDS011;9971;52.446;13.452;2023-05-08T21:32:44;3.40;;;2.80;;
19645;SDS011;9971;52.446;13.452;2023-05-08T21:37:46;3.03;;;2.83;;
19645;SDS011;9971;52.446;13.452;2023-05-08T21:42:48;3.17;;;2.25;;
19645;SDS011;9971;52.446;13.452;2023-05-08T21:47:51;5.28;;;2.80;;
19645;SDS011;9971;52.446;13.452;2023-05-08T21:52:53;3.15;;;2.45;;
19645;SDS011;9971;52.446;13.452;2023-05-08T21:57:56;2.70;;;2.50;;
19645;SDS011;9971;52.446;13.452;2023-05-08T22:02:58;3.47;;;3.17;;
19645;SDS011;9971;52.446;13.452;2023-05-08T22:08:01;5.03;;;3.22;;
19645;SDS011;9971;52.446;13.452;2023-05-08T22:13:03;3.23;;;2.67;;
19645;SDS011;9971;52.446;13.452;2023-05-08T22:18:06;4.00;;;3.52;;
19645;SDS011;9971;52.446;13.452;2023-05-08T22:23:08;5.40;;;4.90;;
19645;SDS011;9971;52.446;13.452;2023-05-08T22:28:11;4.28;;;3.33;;
19645;SDS011;9971;52.446;13.452;2023-05-08T22:33:13;3.62;;;3.15;;
19645;SDS011;9971;52.446;13.452;2023-05-08T22:38:16;4.25;;;3.33;;
19645;SDS011;9971;52.446;13.452;2023-05-08T22:43:18;3.25;;;2.90;;
19645;SDS011;9971;52.446;13.452;2023-05-08T22:48:21;3.35;;;2.72;;
19645;SDS011;9971;52.446;13.452;2023-05-08T22:53:24;2.60;;;2.40;;
19645;SDS011;9971;52.446;13.452;2023-05-08T22:58:26;4.10;;;3.20;;
19645;SDS011;9971;52.446;13.452;2023-05-08T23:03:29;3.37;;;2.70;;
19645;SDS011;9971;52.446;13.452;2023-05-08T23:08:31;4.03;;;3.52;;
19645;SDS011;9971;52.446;13.452;2023-05-08T23:13:34;4.40;;;3.20;;
19645;SDS011;9971;52.446;13.452;2023-05-08T23:18:37;5.17;;;4.03;;
19645;SDS011;9971;52.446;13.452;2023-05-08T23:23:39;4.28;;;3.50;;
19645;SDS011;9971;52.446;13.452;2023-05-08T23:28:42;4.87;;;3.50;;
19645;SDS011;9971;52.446;13.452;2023-05-08T23:33:44;4.17;;;3.65;;
19645;SDS011;9971;52.446;13.452;2023-05-08T23:38:47;3.30;;;2.85;;
19645;SDS011;9971;52.446;13.452;2023-05-08T23:43:49;3.10;;;2.80;;
19645;SDS011;9971;52.446;13.452;2023-05-08T23:48:52;4.33;;;2.72;;
19645;SDS011;9971;52.446;13.452;2023-05-08T23:53:54;3.17;;;2.98;;
19645;SDS011;9971;52.446;13.452;2023-05-08T23:58:57;3.00;;;2.75;;
